Time;durP1;ratioP1;P1;durP2;ratioP2;P2;SDS_P1;SDS_P2;PMS_P1;PMS_P2;Temp;Humidity;BMP_temperature;BMP_pressure;BME280_temperature;BME280_humidity;BME280_pressure;Samples;Min_cycle;Max_cycle;Signal;HPM_P1;HPM_P2
2022/10/17 00:00:10;;;;;;;8.43;4.23;;;;;;;;;;624134;23;788;-66
2022/10/17 00:00:25;;;;;;;9.80;4.43;;;;;;;;;;627956;23;967;-66
2022/10/17 00:00:41;;;;;;;10.77;4.60;;;;;;;;;;627754;23;1359;-66
2022/10/17 00:00:56;;;;;;;8.85;4.70;;;;;;;;;;624410;23;1371;-66
2022/10/17 00:01:12;;;;;;;6.10;4.37;;;;;;;;;;624045;23;1086;-66
2022/10/17 00:01:27;;;;;;;5.72;4.20;;;;;;;;;;624618;23;849;-66
2022/10/17 00:01:42;;;;;;;5.57;4.07;;;;;;;;;;624225;23;939;-66
2022/10/17 00:01:58;;;;;;;4.90;3.85;;;;;;;;;;624128;23;868;-66
2022/10/17 00:02:13;;;;;;;6.00;4.13;;;;;;;;;;624081;23;938;-66
2022/10/17 00:02:28;;;;;;;7.10;4.20;;;;;;;;;;625199;23;859;-66
2022/10/17 00:02:43;;;;;;;6.23;3.90;;;;;;;;;;627542;23;859;-66
2022/10/17 00:02:59;;;;;;;5.70;4.00;;;;;;;;;;629788;23;791;-67
2022/10/17 00:03:14;;;;;;;8.33;4.37;;;;;;;;;;630924;23;878;-66
2022/10/17 00:03:30;;;;;;;9.98;4.60;;;;;;;;;;630915;23;804;-67
2022/10/17 00:03:45;;;;;;;8.57;4.50;;;;;;;;;;631278;23;919;-67
2022/10/17 00:04:00;;;;;;;8.60;4.37;;;;;;;;;;631090;23;897;-66
2022/10/17 00:04:16;;;;;;;6.57;4.25;;;;;;;;;;630411;23;921;-66
2022/10/17 00:04:31;;;;;;;5.30;4.07;;;;;;;;;;630754;23;883;-66
2022/10/17 00:04:46;;;;;;;4.97;3.80;;;;;;;;;;631220;23;1030;-66
2022/10/17 00:05:02;;;;;;;4.28;3.78;;;;;;;;;;631488;23;881;-66
2022/10/17 00:05:17;;;;;;;5.77;4.10;;;;;;;;;;630908;23;984;-66
2022/10/17 00:05:33;;;;;;;6.97;4.13;;;;;;;;;;634022;23;1116;-66
2022/10/17 00:05:48;;;;;;;8.55;4.30;;;;;;;;;;634009;23;1322;-66
2022/10/17 00:06:06;;;;;;;8.30;4.25;;;;;;;;;;631625;23;1691;-66
2022/10/17 00:06:21;;;;;;;6.10;4.07;;;;;;;;;;630664;23;1042;-66
2022/10/17 00:06:37;;;;;;;6.13;4.15;;;;;;;;;;627405;23;1308;-66
2022/10/17 00:06:52;;;;;;;5.90;4.13;;;;;;;;;;627180;23;950;-67
2022/10/17 00:07:07;;;;;;;5.83;4.07;;;;;;;;;;627836;23;800;-67
2022/10/17 00:07:23;;;;;;;6.60;4.15;;;;;;;;;;624599;23;872;-66
2022/10/17 00:07:38;;;;;;;6.33;4.10;;;;;;;;;;622547;23;859;-66
2022/10/17 00:07:54;;;;;;;6.65;4.10;;;;;;;;;;625284;23;895;-66
2022/10/17 00:08:11;;;;;;;6.70;4.23;;;;;;;;;;628238;23;931;-67
2022/10/17 00:08:26;;;;;;;6.80;4.05;;;;;;;;;;627557;23;1232;-67
2022/10/17 00:08:43;;;;;;;9.30;4.43;;;;;;;;;;627839;23;1193;-66
2022/10/17 00:08:58;;;;;;;10.80;4.60;;;;;;;;;;625513;23;1379;-66
2022/10/17 00:09:13;;;;;;;7.00;4.10;;;;;;;;;;625492;23;911;-67
2022/10/17 00:09:28;;;;;;;6.33;4.23;;;;;;;;;;624277;23;986;-66
2022/10/17 00:09:44;;;;;;;7.15;4.22;;;;;;;;;;625224;23;960;-66
2022/10/17 00:09:59;;;;;;;6.03;3.80;;;;;;;;;;625185;23;862;-66
2022/10/17 00:10:14;;;;;;;6.13;3.83;;;;;;;;;;625987;23;836;-66
2022/10/17 00:10:30;;;;;;;7.13;4.15;;;;;;;;;;628109;23;1100;-66
2022/10/17 00:10:55;;;;;;;6.33;4.10;;;;;;;;;;630574;23;948;-66
2022/10/17 00:11:17;;;;;;;5.78;4.03;;;;;;;;;;630846;23;951;-67
2022/10/17 00:11:32;;;;;;;6.88;4.10;;;;;;;;;;631519;23;890;-67
2022/10/17 00:11:47;;;;;;;7.07;4.13;;;;;;;;;;630251;23;962;-67
2022/10/17 00:12:03;;;;;;;7.97;4.15;;;;;;;;;;631715;23;961;-67
2022/10/17 00:12:18;;;;;;;7.10;4.20;;;;;;;;;;631008;23;909;-67
2022/10/17 00:12:34;;;;;;;6.35;4.30;;;;;;;;;;631301;23;874;-66
2022/10/17 00:12:50;;;;;;;6.10;4.00;;;;;;;;;;629908;23;967;-66
2022/10/17 00:13:07;;;;;;;6.80;3.90;;;;;;;;;;632091;23;839;-66
2022/10/17 00:13:23;;;;;;;5.82;3.97;;;;;;;;;;631369;23;874;-66
2022/10/17 00:13:38;;;;;;;4.97;4.00;;;;;;;;;;628367;23;1346;-66
2022/10/17 00:13:54;;;;;;;5.83;4.10;;;;;;;;;;627083;23;914;-66
2022/10/17 00:14:10;;;;;;;6.88;4.20;;;;;;;;;;626844;23;1410;-66
2022/10/17 00:14:25;;;;;;;6.23;4.10;;;;;;;;;;628263;23;855;-66
2022/10/17 00:14:40;;;;;;;7.37;4.13;;;;;;;;;;627812;23;812;-66
2022/10/17 00:14:55;;;;;;;6.95;4.00;;;;;;;;;;627195;23;867;-67
2022/10/17 00:15:15;;;;;;;7.00;3.90;;;;;;;;;;627856;23;1315;-66
2022/10/17 00:15:30;;;;;;;8.88;4.20;;;;;;;;;;629153;23;1905;-67
2022/10/17 00:15:46;;;;;;;8.18;4.10;;;;;;;;;;629468;23;892;-66
2022/10/17 00:16:01;;;;;;;5.70;3.90;;;;;;;;;;631419;23;1578;-66
2022/10/17 00:16:35;;;;;;;5.83;4.07;;;;;;;;;;628441;23;906;-66
2022/10/17 00:16:50;;;;;;;7.32;4.50;;;;;;;;;;627850;23;836;-67
2022/10/17 00:17:06;;;;;;;7.27;4.20;;;;;;;;;;628138;23;1284;-66
2022/10/17 00:17:21;;;;;;;6.10;4.30;;;;;;;;;;626040;23;821;-66
2022/10/17 00:17:37;;;;;;;7.00;4.25;;;;;;;;;;628575;23;941;-66
2022/10/17 00:17:52;;;;;;;6.63;4.10;;;;;;;;;;625581;23;1001;-67
2022/10/17 00:18:07;;;;;;;5.83;4.53;;;;;;;;;;623630;23;884;-66
2022/10/17 00:18:23;;;;;;;5.50;4.50;;;;;;;;;;625479;23;832;-66
2022/10/17 00:18:38;;;;;;;6.10;4.40;;;;;;;;;;625240;23;868;-66
2022/10/17 00:18:54;;;;;;;6.45;4.30;;;;;;;;;;624801;23;839;-66
2022/10/17 00:19:09;;;;;;;7.90;4.40;;;;;;;;;;627452;23;921;-66
2022/10/17 00:19:24;;;;;;;8.90;4.40;;;;;;;;;;631078;23;897;-66
2022/10/17 00:19:41;;;;;;;7.57;4.27;;;;;;;;;;631265;23;969;-66
2022/10/17 00:19:58;;;;;;;5.90;4.20;;;;;;;;;;630468;23;1061;-66
2022/10/17 00:20:14;;;;;;;6.50;4.28;;;;;;;;;;631876;23;1038;-66
2022/10/17 00:20:31;;;;;;;6.75;4.20;;;;;;;;;;631752;23;855;-66
2022/10/17 00:20:46;;;;;;;7.07;4.20;;;;;;;;;;630577;23;1439;-67
2022/10/17 00:21:02;;;;;;;8.37;4.53;;;;;;;;;;630402;23;1105;-66
2022/10/17 00:21:19;;;;;;;7.32;4.60;;;;;;;;;;631115;23;998;-66
2022/10/17 00:21:34;;;;;;;5.65;4.38;;;;;;;;;;631024;23;971;-66
2022/10/17 00:21:50;;;;;;;5.93;4.20;;;;;;;;;;627860;23;1146;-66
2022/10/17 00:22:05;;;;;;;5.63;4.00;;;;;;;;;;627563;23;886;-66
2022/10/17 00:22:20;;;;;;;5.97;3.90;;;;;;;;;;625210;23;979;-66
2022/10/17 00:22:36;;;;;;;6.95;4.00;;;;;;;;;;625914;23;871;-66
2022/10/17 00:22:51;;;;;;;7.47;4.23;;;;;;;;;;627235;23;962;-66
2022/10/17 00:23:06;;;;;;;7.60;4.10;;;;;;;;;;625340;23;1421;-67
2022/10/17 00:23:22;;;;;;;8.97;4.17;;;;;;;;;;621577;23;1150;-66
2022/10/17 00:23:38;;;;;;;8.65;4.32;;;;;;;;;;619470;23;879;-66
2022/10/17 00:23:53;;;;;;;6.60;4.20;;;;;;;;;;621847;23;971;-66
2022/10/17 00:24:09;;;;;;;6.72;4.20;;;;;;;;;;622537;23;907;-66
2022/10/17 00:24:24;;;;;;;7.07;4.10;;;;;;;;;;624718;23;1320;-66
2022/10/17 00:24:39;;;;;;;5.53;3.83;;;;;;;;;;625325;23;879;-66
2022/10/17 00:24:55;;;;;;;6.85;3.78;;;;;;;;;;625977;23;857;-66
2022/10/17 00:25:11;;;;;;;6.77;3.70;;;;;;;;;;627996;23;907;-66
2022/10/17 00:25:26;;;;;;;5.50;3.80;;;;;;;;;;631081;23;957;-66
2022/10/17 00:25:41;;;;;;;5.97;4.00;;;;;;;;;;633843;23;881;-66
2022/10/17 00:25:58;;;;;;;5.07;4.00;;;;;;;;;;634426;23;990;-66
2022/10/17 00:26:15;;;;;;;5.82;4.00;;;;;;;;;;631371;23;820;-67
2022/10/17 00:26:30;;;;;;;7.35;4.38;;;;;;;;;;627943;23;1916;-66
2022/10/17 00:26:46;;;;;;;8.77;4.50;;;;;;;;;;628304;23;964;-66
2022/10/17 00:27:01;;;;;;;8.93;4.30;;;;;;;;;;627926;23;998;-66
2022/10/17 00:27:16;;;;;;;7.33;4.10;;;;;;;;;;628154;23;1059;-66
2022/10/17 00:27:36;;;;;;;5.82;4.20;;;;;;;;;;628160;23;970;-66
2022/10/17 00:27:51;;;;;;;5.88;4.32;;;;;;;;;;623950;23;1354;-66
2022/10/17 00:28:11;;;;;;;8.13;4.38;;;;;;;;;;626758;23;1022;-66
2022/10/17 00:28:26;;;;;;;6.45;4.10;;;;;;;;;;630675;23;978;-66
2022/10/17 00:28:44;;;;;;;5.10;3.97;;;;;;;;;;627407;23;1204;-66
2022/10/17 00:28:59;;;;;;;5.50;3.92;;;;;;;;;;628574;23;1042;-66
2022/10/17 00:29:15;;;;;;;7.40;3.90;;;;;;;;;;627462;23;994;-66
2022/10/17 00:29:30;;;;;;;7.27;3.67;;;;;;;;;;628187;23;895;-66
2022/10/17 00:29:49;;;;;;;6.37;3.97;;;;;;;;;;626393;23;1379;-66
2022/10/17 00:30:07;;;;;;;7.97;4.47;;;;;;;;;;627230;23;1239;-65
2022/10/17 00:30:22;;;;;;;7.25;4.40;;;;;;;;;;627045;23;1346;-66
2022/10/17 00:30:38;;;;;;;6.17;4.27;;;;;;;;;;628391;23;1192;-66
2022/10/17 00:31:02;;;;;;;7.03;4.25;;;;;;;;;;628339;23;777;-66
2022/10/17 00:31:19;;;;;;;5.78;3.95;;;;;;;;;;628076;23;1303;-66
2022/10/17 00:31:34;;;;;;;5.18;4.00;;;;;;;;;;627528;23;903;-66
2022/10/17 00:31:54;;;;;;;6.05;4.10;;;;;;;;;;627581;23;891;-66
2022/10/17 00:32:10;;;;;;;6.57;4.30;;;;;;;;;;627763;23;2056;-66
2022/10/17 00:32:25;;;;;;;7.33;4.40;;;;;;;;;;627926;23;876;-66
2022/10/17 00:32:40;;;;;;;8.40;4.30;;;;;;;;;;627683;23;1363;-67
2022/10/17 00:32:55;;;;;;;7.05;4.25;;;;;;;;;;627510;23;1305;-66
2022/10/17 00:33:11;;;;;;;8.50;4.30;;;;;;;;;;629427;23;1355;-66
2022/10/17 00:33:27;;;;;;;9.10;4.13;;;;;;;;;;630833;23;842;-66
2022/10/17 00:33:43;;;;;;;5.07;3.90;;;;;;;;;;631076;23;864;-66
2022/10/17 00:33:58;;;;;;;4.50;3.90;;;;;;;;;;627988;23;1316;-66
2022/10/17 00:34:14;;;;;;;6.07;4.27;;;;;;;;;;628103;23;864;-66
2022/10/17 00:34:29;;;;;;;6.20;4.20;;;;;;;;;;628507;23;943;-66
2022/10/17 00:34:45;;;;;;;5.45;4.30;;;;;;;;;;629910;23;866;-66
2022/10/17 00:35:01;;;;;;;5.57;4.30;;;;;;;;;;628868;23;903;-66
2022/10/17 00:35:16;;;;;;;6.13;3.90;;;;;;;;;;628082;23;1370;-66
2022/10/17 00:35:32;;;;;;;7.40;4.00;;;;;;;;;;628136;23;931;-66
2022/10/17 00:35:47;;;;;;;8.05;4.35;;;;;;;;;;624866;23;995;-66
2022/10/17 00:36:04;;;;;;;8.87;4.40;;;;;;;;;;628593;23;836;-68
2022/10/17 00:36:22;;;;;;;8.77;4.32;;;;;;;;;;628318;23;1059;-67
2022/10/17 00:36:38;;;;;;;6.97;4.40;;;;;;;;;;627451;23;914;-67
2022/10/17 00:36:53;;;;;;;7.50;4.50;;;;;;;;;;628339;23;951;-67
2022/10/17 00:37:08;;;;;;;8.63;4.60;;;;;;;;;;629465;23;1144;-67
2022/10/17 00:37:24;;;;;;;9.50;4.80;;;;;;;;;;630747;23;1302;-67
2022/10/17 00:37:39;;;;;;;8.65;4.63;;;;;;;;;;628542;23;1248;-67
2022/10/17 00:37:54;;;;;;;6.73;4.33;;;;;;;;;;627359;23;848;-67
2022/10/17 00:38:10;;;;;;;6.20;4.53;;;;;;;;;;628864;23;891;-67
2022/10/17 00:38:25;;;;;;;8.23;4.73;;;;;;;;;;627786;23;856;-67
2022/10/17 00:38:42;;;;;;;9.00;4.70;;;;;;;;;;628107;23;1067;-67
2022/10/17 00:38:58;;;;;;;7.97;4.70;;;;;;;;;;627331;23;1217;-67
2022/10/17 00:39:13;;;;;;;7.75;4.50;;;;;;;;;;625764;23;797;-67
2022/10/17 00:39:28;;;;;;;7.50;4.73;;;;;;;;;;628850;23;943;-66
2022/10/17 00:39:44;;;;;;;6.53;4.90;;;;;;;;;;630512;23;951;-67
2022/10/17 00:39:59;;;;;;;7.20;4.70;;;;;;;;;;630764;23;926;-67
2022/10/17 00:40:14;;;;;;;6.22;4.55;;;;;;;;;;631430;23;828;-66
2022/10/17 00:40:30;;;;;;;6.13;4.67;;;;;;;;;;631598;23;774;-67
2022/10/17 00:40:45;;;;;;;8.87;4.90;;;;;;;;;;631192;23;915;-66
2022/10/17 00:41:01;;;;;;;8.38;4.82;;;;;;;;;;630649;23;918;-67
2022/10/17 00:41:18;;;;;;;5.18;4.32;;;;;;;;;;631142;23;942;-66
2022/10/17 00:41:34;;;;;;;5.10;4.10;;;;;;;;;;628191;23;1336;-67
2022/10/17 00:41:49;;;;;;;7.10;4.10;;;;;;;;;;628058;23;789;-67
2022/10/17 00:42:05;;;;;;;6.55;4.20;;;;;;;;;;624523;23;866;-67
2022/10/17 00:42:20;;;;;;;7.57;4.50;;;;;;;;;;625404;23;960;-67
2022/10/17 00:42:36;;;;;;;8.10;4.50;;;;;;;;;;626136;23;756;-67
2022/10/17 00:42:52;;;;;;;7.35;4.30;;;;;;;;;;626804;23;843;-67
2022/10/17 00:43:17;;;;;;;7.43;4.50;;;;;;;;;;627647;23;952;-67
2022/10/17 00:43:51;;;;;;;9.48;4.75;;;;;;;;;;630093;23;899;-67
2022/10/17 00:44:29;;;;;;;8.45;4.80;;;;;;;;;;630319;23;1468;-67
2022/10/17 00:44:47;;;;;;;9.48;4.63;;;;;;;;;;630616;23;950;-67
2022/10/17 00:45:06;;;;;;;9.98;4.68;;;;;;;;;;630688;23;934;-66
2022/10/17 00:45:30;;;;;;;8.93;4.45;;;;;;;;;;631040;23;839;-67
2022/10/17 00:45:45;;;;;;;8.73;4.72;;;;;;;;;;631372;23;974;-67
2022/10/17 00:46:00;;;;;;;9.25;5.00;;;;;;;;;;631215;23;1074;-67
2022/10/17 00:46:16;;;;;;;9.33;5.30;;;;;;;;;;631180;23;894;-67
2022/10/17 00:46:36;;;;;;;7.47;4.93;;;;;;;;;;631401;23;776;-67
2022/10/17 00:46:52;;;;;;;9.05;4.95;;;;;;;;;;631253;23;867;-67
2022/10/17 00:47:12;;;;;;;8.88;4.60;;;;;;;;;;630877;23;824;-66
2022/10/17 00:47:28;;;;;;;5.43;4.35;;;;;;;;;;631121;23;1031;-67
2022/10/17 00:47:46;;;;;;;7.82;4.50;;;;;;;;;;631711;23;1243;-67
2022/10/17 00:48:07;;;;;;;9.57;4.63;;;;;;;;;;631422;23;827;-67
2022/10/17 00:48:24;;;;;;;7.50;4.85;;;;;;;;;;631184;23;867;-67
2022/10/17 00:48:39;;;;;;;8.70;4.82;;;;;;;;;;631422;23;1327;-67
2022/10/17 00:48:57;;;;;;;7.55;4.80;;;;;;;;;;630164;23;1307;-67
2022/10/17 00:49:12;;;;;;;7.72;4.88;;;;;;;;;;630489;23;941;-66
2022/10/17 00:49:31;;;;;;;8.53;4.87;;;;;;;;;;631520;23;788;-67
2022/10/17 00:49:47;;;;;;;8.00;4.85;;;;;;;;;;630729;23;922;-67
2022/10/17 00:50:04;;;;;;;6.18;4.90;;;;;;;;;;627178;23;1271;-67
2022/10/17 00:50:19;;;;;;;6.18;4.80;;;;;;;;;;628150;23;914;-67
2022/10/17 00:50:37;;;;;;;9.13;4.93;;;;;;;;;;629304;23;1026;-67
2022/10/17 00:50:53;;;;;;;9.88;4.90;;;;;;;;;;627206;23;1398;-67
2022/10/17 00:51:09;;;;;;;7.60;5.00;;;;;;;;;;624671;23;1205;-67
2022/10/17 00:51:31;;;;;;;7.13;5.20;;;;;;;;;;621013;23;1220;-67
2022/10/17 00:51:54;;;;;;;8.95;5.50;;;;;;;;;;622242;23;824;-67
2022/10/17 00:52:18;;;;;;;10.35;5.65;;;;;;;;;;624283;23;990;-67
2022/10/17 00:52:34;;;;;;;11.02;5.50;;;;;;;;;;624622;23;1101;-67
2022/10/17 00:52:49;;;;;;;7.57;5.40;;;;;;;;;;626004;23;1201;-67
2022/10/17 00:53:07;;;;;;;6.63;5.13;;;;;;;;;;624382;23;891;-67
2022/10/17 00:53:22;;;;;;;7.43;5.25;;;;;;;;;;627568;23;959;-66
2022/10/17 00:53:38;;;;;;;8.93;5.40;;;;;;;;;;627194;23;1220;-66
2022/10/17 00:53:54;;;;;;;6.72;4.95;;;;;;;;;;628162;23;1148;-66
2022/10/17 00:54:12;;;;;;;5.18;4.57;;;;;;;;;;630406;23;926;-67
2022/10/17 00:54:32;;;;;;;5.90;4.45;;;;;;;;;;630517;23;1347;-66
2022/10/17 00:54:56;;;;;;;8.38;4.97;;;;;;;;;;628043;23;931;-67
2022/10/17 00:55:25;;;;;;;6.90;4.80;;;;;;;;;;627525;23;1108;-67
2022/10/17 00:55:51;;;;;;;8.13;4.68;;;;;;;;;;631015;23;898;-67
2022/10/17 00:56:07;;;;;;;6.32;4.57;;;;;;;;;;631299;23;985;-67
2022/10/17 00:56:22;;;;;;;4.90;4.40;;;;;;;;;;631158;23;840;-66
2022/10/17 00:56:39;;;;;;;6.70;4.67;;;;;;;;;;630463;23;885;-66
2022/10/17 00:56:54;;;;;;;7.82;4.75;;;;;;;;;;630805;23;906;-67
2022/10/17 00:57:10;;;;;;;7.30;4.57;;;;;;;;;;631473;23;831;-67
2022/10/17 00:57:27;;;;;;;7.55;4.53;;;;;;;;;;631037;23;1275;-67
2022/10/17 00:57:43;;;;;;;6.82;4.50;;;;;;;;;;631270;23;846;-67
2022/10/17 00:58:02;;;;;;;7.10;4.60;;;;;;;;;;630446;23;1026;-67
2022/10/17 00:58:19;;;;;;;10.27;5.03;;;;;;;;;;630751;23;1058;-67
2022/10/17 00:58:34;;;;;;;8.63;5.00;;;;;;;;;;631550;23;858;-67
2022/10/17 00:58:50;;;;;;;6.33;4.50;;;;;;;;;;631216;23;831;-67
2022/10/17 00:59:09;;;;;;;7.75;4.57;;;;;;;;;;630230;23;942;-66
2022/10/17 00:59:25;;;;;;;10.18;4.90;;;;;;;;;;631355;23;946;-67
2022/10/17 00:59:44;;;;;;;11.93;4.82;;;;;;;;;;631405;23;961;-66
2022/10/17 01:00:03;;;;;;;8.60;5.18;;;;;;;;;;630554;23;1441;-67
2022/10/17 01:00:19;;;;;;;8.43;5.13;;;;;;;;;;630603;23;931;-66
2022/10/17 01:00:35;;;;;;;7.55;4.95;;;;;;;;;;630338;23;899;-67
2022/10/17 01:00:51;;;;;;;7.28;4.90;;;;;;;;;;630797;23;890;-66
2022/10/17 01:01:06;;;;;;;6.75;4.90;;;;;;;;;;627667;23;1188;-67
2022/10/17 01:01:21;;;;;;;6.00;4.90;;;;;;;;;;627354;23;1177;-66
2022/10/17 01:01:39;;;;;;;6.17;4.70;;;;;;;;;;627394;23;1284;-65
2022/10/17 01:02:08;;;;;;;5.88;4.50;;;;;;;;;;630480;23;890;-67
2022/10/17 01:02:23;;;;;;;6.32;4.55;;;;;;;;;;628283;23;1417;-66
2022/10/17 01:02:38;;;;;;;6.68;4.68;;;;;;;;;;627282;23;1169;-67
2022/10/17 01:02:54;;;;;;;7.63;4.67;;;;;;;;;;626775;23;897;-67
2022/10/17 01:03:09;;;;;;;7.45;4.80;;;;;;;;;;631291;23;922;-68
2022/10/17 01:03:24;;;;;;;6.03;4.80;;;;;;;;;;627687;23;939;-68
2022/10/17 01:03:40;;;;;;;6.43;4.70;;;;;;;;;;630836;23;848;-67
2022/10/17 01:03:55;;;;;;;6.47;4.88;;;;;;;;;;630888;23;925;-68
2022/10/17 01:04:10;;;;;;;6.37;4.87;;;;;;;;;;628616;23;823;-68
2022/10/17 01:04:26;;;;;;;6.13;4.60;;;;;;;;;;625513;23;919;-68
2022/10/17 01:04:44;;;;;;;5.88;4.63;;;;;;;;;;627796;23;835;-68
2022/10/17 01:04:59;;;;;;;7.15;4.80;;;;;;;;;;627764;23;953;-68
2022/10/17 01:05:16;;;;;;;8.85;5.10;;;;;;;;;;622458;23;998;-68
2022/10/17 01:05:31;;;;;;;7.43;4.85;;;;;;;;;;619347;23;980;-67
2022/10/17 01:05:47;;;;;;;7.73;4.63;;;;;;;;;;618126;23;1732;-67
2022/10/17 01:06:02;;;;;;;7.60;4.90;;;;;;;;;;620552;23;869;-67
2022/10/17 01:06:17;;;;;;;5.83;4.70;;;;;;;;;;623903;23;928;-68
2022/10/17 01:06:33;;;;;;;6.10;4.60;;;;;;;;;;621838;23;1353;-68
2022/10/17 01:06:48;;;;;;;7.78;4.68;;;;;;;;;;622152;23;840;-68
2022/10/17 01:07:03;;;;;;;7.40;4.60;;;;;;;;;;621951;23;1244;-68
2022/10/17 01:07:18;;;;;;;6.93;4.60;;;;;;;;;;622602;23;1274;-68
2022/10/17 01:07:35;;;;;;;6.17;4.30;;;;;;;;;;624539;23;863;-68
2022/10/17 01:07:52;;;;;;;5.95;4.55;;;;;;;;;;621672;23;939;-68
2022/10/17 01:08:08;;;;;;;6.78;4.78;;;;;;;;;;620859;23;924;-67
2022/10/17 01:08:23;;;;;;;4.68;4.20;;;;;;;;;;623002;23;963;-67
2022/10/17 01:08:39;;;;;;;5.27;4.30;;;;;;;;;;625290;23;1301;-68
2022/10/17 01:08:54;;;;;;;5.32;4.40;;;;;;;;;;622444;23;1258;-68
2022/10/17 01:09:10;;;;;;;4.63;4.23;;;;;;;;;;624037;23;832;-68
2022/10/17 01:09:26;;;;;;;5.43;4.28;;;;;;;;;;625533;23;879;-68
2022/10/17 01:09:43;;;;;;;6.40;4.07;;;;;;;;;;625485;23;808;-68
2022/10/17 01:09:59;;;;;;;6.68;3.90;;;;;;;;;;627766;23;973;-68
2022/10/17 01:10:14;;;;;;;7.00;4.05;;;;;;;;;;628170;23;745;-68
2022/10/17 01:10:47;;;;;;;8.00;4.03;;;;;;;;;;629349;23;1304;-68
2022/10/17 01:11:14;;;;;;;6.10;4.45;;;;;;;;;;629757;23;966;-68
2022/10/17 01:11:39;;;;;;;6.20;4.47;;;;;;;;;;631425;23;914;-68
2022/10/17 01:12:18;;;;;;;6.30;4.10;;;;;;;;;;627977;23;1011;-68
2022/10/17 01:12:59;;;;;;;6.28;4.20;;;;;;;;;;628370;23;919;-68
2022/10/17 01:13:27;;;;;;;4.90;4.05;;;;;;;;;;631258;23;823;-68
2022/10/17 01:13:50;;;;;;;7.00;4.22;;;;;;;;;;631166;23;862;-68
2022/10/17 01:14:17;;;;;;;6.00;4.40;;;;;;;;;;630890;23;1930;-67
2022/10/17 01:14:45;;;;;;;5.97;4.10;;;;;;;;;;630604;23;959;-68
2022/10/17 01:15:25;;;;;;;5.80;4.15;;;;;;;;;;630778;23;966;-69
2022/10/17 01:16:09;;;;;;;7.53;4.38;;;;;;;;;;626646;23;1025;-69
2022/10/17 01:16:31;;;;;;;4.85;3.85;;;;;;;;;;631195;23;877;-69
2022/10/17 01:17:05;;;;;;;4.55;3.83;;;;;;;;;;631077;23;1036;-68
2022/10/17 01:17:43;;;;;;;5.80;4.07;;;;;;;;;;629584;23;861;-69
2022/10/17 01:18:26;;;;;;;4.97;3.80;;;;;;;;;;629519;23;846;-69
2022/10/17 01:18:44;;;;;;;5.68;3.67;;;;;;;;;;631237;23;1224;-66
2022/10/17 01:19:05;;;;;;;6.70;3.80;;;;;;;;;;630096;23;886;-66
2022/10/17 01:19:32;;;;;;;5.75;4.05;;;;;;;;;;630995;23;939;-66
2022/10/17 01:20:13;;;;;;;5.82;4.38;;;;;;;;;;630828;23;1000;-67
2022/10/17 01:20:56;;;;;;;6.57;3.92;;;;;;;;;;616102;23;1071;-66
2022/10/17 01:21:39;;;;;;;4.90;3.55;;;;;;;;;;618558;23;805;-66
2022/10/17 01:22:09;;;;;;;4.53;3.78;;;;;;;;;;630337;23;1006;-66
2022/10/17 01:22:39;;;;;;;5.00;3.97;;;;;;;;;;631018;23;1017;-66
2022/10/17 01:23:06;;;;;;;4.93;3.80;;;;;;;;;;630615;23;983;-66
2022/10/17 01:23:43;;;;;;;4.47;3.90;;;;;;;;;;630686;23;870;-67
2022/10/17 01:24:47;;;;;;;5.45;3.90;;;;;;;;;;630428;23;1038;-66
2022/10/17 01:25:17;;;;;;;4.22;3.83;;;;;;;;;;626684;23;1280;-66
2022/10/17 01:26:00;;;;;;;4.13;3.72;;;;;;;;;;631438;23;1117;-66
2022/10/17 01:26:27;;;;;;;5.95;3.78;;;;;;;;;;631473;23;887;-66
2022/10/17 01:26:58;;;;;;;5.30;4.30;;;;;;;;;;630540;23;923;-67
2022/10/17 01:27:45;;;;;;;5.45;4.20;;;;;;;;;;630641;23;831;-67
2022/10/17 01:28:38;;;;;;;4.70;4.28;;;;;;;;;;624641;23;1415;-66
2022/10/17 01:29:15;;;;;;;4.45;4.05;;;;;;;;;;626952;23;1981;-66
2022/10/17 01:29:49;;;;;;;5.50;4.30;;;;;;;;;;628105;23;999;-66
2022/10/17 01:30:24;;;;;;;5.22;4.20;;;;;;;;;;630747;23;1069;-67
2022/10/17 01:31:03;;;;;;;4.30;3.90;;;;;;;;;;630356;23;875;-66
2022/10/17 01:31:23;;;;;;;6.35;4.40;;;;;;;;;;629780;23;2206;-66
2022/10/17 01:31:53;;;;;;;5.20;4.38;;;;;;;;;;630115;23;919;-66
2022/10/17 01:32:18;;;;;;;6.38;4.40;;;;;;;;;;631079;23;862;-66
2022/10/17 01:32:38;;;;;;;5.43;4.18;;;;;;;;;;627627;23;2140;-66
2022/10/17 01:33:15;;;;;;;6.35;4.35;;;;;;;;;;626971;23;1346;-66
2022/10/17 01:33:34;;;;;;;6.07;4.13;;;;;;;;;;627666;23;891;-66
2022/10/17 01:34:11;;;;;;;5.80;4.30;;;;;;;;;;625018;23;1565;-66
2022/10/17 01:34:35;;;;;;;5.72;4.15;;;;;;;;;;624594;23;993;-66
2022/10/17 01:35:02;;;;;;;6.10;4.47;;;;;;;;;;626245;23;1303;-66
2022/10/17 01:35:31;;;;;;;4.75;4.32;;;;;;;;;;628210;23;963;-66
2022/10/17 01:35:53;;;;;;;5.93;4.25;;;;;;;;;;631014;23;1085;-66
2022/10/17 01:36:16;;;;;;;4.85;4.18;;;;;;;;;;631038;23;994;-66
2022/10/17 01:36:36;;;;;;;4.60;3.90;;;;;;;;;;627120;23;1342;-66
2022/10/17 01:36:52;;;;;;;4.75;4.10;;;;;;;;;;627727;23;967;-66
2022/10/17 01:37:19;;;;;;;4.80;4.20;;;;;;;;;;627849;23;930;-66
2022/10/17 01:37:48;;;;;;;5.30;4.05;;;;;;;;;;627372;23;843;-66
2022/10/17 01:38:11;;;;;;;5.93;4.03;;;;;;;;;;629633;23;987;-66
2022/10/17 01:38:34;;;;;;;4.70;3.90;;;;;;;;;;629910;23;902;-66
2022/10/17 01:38:56;;;;;;;5.00;3.97;;;;;;;;;;630640;23;1269;-66
2022/10/17 01:39:16;;;;;;;4.28;3.80;;;;;;;;;;630747;23;942;-66
2022/10/17 01:39:44;;;;;;;4.20;3.80;;;;;;;;;;627999;23;1189;-66
2022/10/17 01:40:09;;;;;;;4.90;3.85;;;;;;;;;;624912;23;1281;-66
2022/10/17 01:40:31;;;;;;;4.13;3.72;;;;;;;;;;624548;23;900;-66
2022/10/17 01:41:05;;;;;;;3.80;3.50;;;;;;;;;;624694;23;947;-66
2022/10/17 01:41:27;;;;;;;3.95;3.50;;;;;;;;;;625635;23;907;-66
2022/10/17 01:42:01;;;;;;;5.55;3.75;;;;;;;;;;627260;23;923;-66
2022/10/17 01:42:35;;;;;;;5.55;3.90;;;;;;;;;;629877;23;844;-66
2022/10/17 01:43:13;;;;;;;4.80;4.13;;;;;;;;;;630485;23;1050;-66
2022/10/17 01:43:37;;;;;;;5.28;4.05;;;;;;;;;;627795;23;1287;-66
2022/10/17 01:44:04;;;;;;;4.50;4.03;;;;;;;;;;627506;23;870;-67
2022/10/17 01:44:38;;;;;;;5.45;4.20;;;;;;;;;;628182;23;898;-66
2022/10/17 01:45:11;;;;;;;5.45;4.30;;;;;;;;;;630268;23;1073;-66
2022/10/17 01:45:48;;;;;;;4.20;3.80;;;;;;;;;;630663;23;981;-66
2022/10/17 01:46:15;;;;;;;4.47;3.70;;;;;;;;;;627784;23;843;-66
2022/10/17 01:46:38;;;;;;;4.32;3.75;;;;;;;;;;627935;23;849;-66
2022/10/17 01:47:02;;;;;;;4.45;3.90;;;;;;;;;;627946;23;1977;-66
2022/10/17 01:47:20;;;;;;;4.80;4.20;;;;;;;;;;629810;23;951;-66
2022/10/17 01:47:37;;;;;;;6.00;4.38;;;;;;;;;;631398;23;960;-66
2022/10/17 01:47:54;;;;;;;5.57;4.00;;;;;;;;;;627308;23;1355;-66
2022/10/17 01:48:15;;;;;;;5.10;4.00;;;;;;;;;;628024;23;879;-66
2022/10/17 01:48:38;;;;;;;5.20;4.00;;;;;;;;;;627948;23;1319;-66
2022/10/17 01:48:56;;;;;;;4.90;4.20;;;;;;;;;;629898;23;967;-66
2022/10/17 01:49:15;;;;;;;5.05;4.13;;;;;;;;;;631073;23;931;-66
2022/10/17 01:49:32;;;;;;;4.72;4.13;;;;;;;;;;630568;23;1038;-66
2022/10/17 01:49:49;;;;;;;5.15;4.13;;;;;;;;;;631043;23;1245;-66
2022/10/17 01:50:13;;;;;;;5.53;4.22;;;;;;;;;;630780;23;875;-66
2022/10/17 01:50:36;;;;;;;6.05;3.97;;;;;;;;;;632833;23;1426;-66
2022/10/17 01:51:00;;;;;;;8.32;3.70;;;;;;;;;;633937;23;962;-66
2022/10/17 01:51:29;;;;;;;5.20;3.70;;;;;;;;;;633816;23;828;-67
2022/10/17 01:51:56;;;;;;;4.97;3.80;;;;;;;;;;627792;23;1236;-66
2022/10/17 01:52:18;;;;;;;3.92;3.47;;;;;;;;;;628111;23;950;-66
2022/10/17 01:52:41;;;;;;;5.13;3.70;;;;;;;;;;627499;23;1276;-67
2022/10/17 01:53:03;;;;;;;6.50;4.00;;;;;;;;;;627286;23;902;-66
2022/10/17 01:53:28;;;;;;;4.55;4.05;;;;;;;;;;627044;23;1143;-66
2022/10/17 01:53:51;;;;;;;4.45;3.83;;;;;;;;;;630130;23;1102;-66
2022/10/17 01:54:15;;;;;;;5.40;4.18;;;;;;;;;;631202;23;776;-66
2022/10/17 01:54:38;;;;;;;5.80;4.00;;;;;;;;;;630072;23;1022;-66
2022/10/17 01:54:59;;;;;;;5.38;4.03;;;;;;;;;;627520;23;1345;-66
2022/10/17 01:55:22;;;;;;;6.97;4.30;;;;;;;;;;625055;23;1426;-66
2022/10/17 01:55:41;;;;;;;5.50;4.00;;;;;;;;;;624205;23;1076;-66
2022/10/17 01:55:59;;;;;;;5.15;4.10;;;;;;;;;;624939;23;844;-66
2022/10/17 01:56:17;;;;;;;4.85;4.00;;;;;;;;;;624424;23;820;-67
2022/10/17 01:56:34;;;;;;;4.40;4.00;;;;;;;;;;627037;23;1376;-66
2022/10/17 01:56:55;;;;;;;4.22;3.88;;;;;;;;;;628100;23;883;-67
2022/10/17 01:57:25;;;;;;;5.60;3.90;;;;;;;;;;629338;23;775;-66
2022/10/17 01:57:45;;;;;;;5.90;4.18;;;;;;;;;;631162;23;993;-66
2022/10/17 01:58:05;;;;;;;4.47;3.83;;;;;;;;;;630692;23;831;-66
2022/10/17 01:58:35;;;;;;;4.30;3.90;;;;;;;;;;630278;23;885;-66
2022/10/17 01:58:56;;;;;;;4.10;3.70;;;;;;;;;;630981;23;1143;-66
2022/10/17 01:59:16;;;;;;;4.07;3.60;;;;;;;;;;630648;23;970;-66
2022/10/17 01:59:39;;;;;;;4.43;4.03;;;;;;;;;;631512;23;1021;-66
2022/10/17 01:59:56;;;;;;;4.50;4.00;;;;;;;;;;630907;23;937;-66
2022/10/17 02:00:15;;;;;;;4.32;3.92;;;;;;;;;;630507;23;881;-66
2022/10/17 02:00:31;;;;;;;4.38;3.97;;;;;;;;;;631359;23;998;-66
2022/10/17 02:00:48;;;;;;;4.32;3.92;;;;;;;;;;627955;23;1006;-66
2022/10/17 02:01:06;;;;;;;4.20;3.80;;;;;;;;;;627600;23;824;-66
2022/10/17 02:01:24;;;;;;;4.20;3.80;;;;;;;;;;627980;23;990;-66
2022/10/17 02:01:41;;;;;;;4.18;3.78;;;;;;;;;;627663;23;939;-66
2022/10/17 02:01:57;;;;;;;4.40;3.90;;;;;;;;;;626936;23;926;-66
2022/10/17 02:02:14;;;;;;;4.60;3.90;;;;;;;;;;631088;23;929;-66
2022/10/17 02:02:31;;;;;;;4.50;3.53;;;;;;;;;;630901;23;915;-66
2022/10/17 02:02:49;;;;;;;4.13;3.72;;;;;;;;;;629265;23;1342;-66
2022/10/17 02:03:07;;;;;;;4.35;3.95;;;;;;;;;;630429;23;943;-66
2022/10/17 02:03:24;;;;;;;6.15;4.03;;;;;;;;;;627973;23;907;-67
2022/10/17 02:03:42;;;;;;;5.15;4.03;;;;;;;;;;628314;23;895;-69